Bookmark and Share
Track history (hours):
 

Conches

Last reported at 2014-Apr-24 00:11 UTC. Time now 2014-Apr-24 09:14 UTC.
Position N 50°35' W 002°26'.

Length 292 m; draft 9.8 m.

Type: Cargo ship. MMSI: 538004070.

NotesDate/timePositionNaut miles runAvg speedWind from/ knotsBaromVisibWave heightAir tempDewpointWater temp
2014-Apr-24 00:11N 50°35' W 002°26'0 0.0
2014-Apr-23 15:17N 50°35' W 002°26'0 0.0
2014-Apr-23 07:10N 50°35' W 002°26'3 0.1
2014-Apr-21 22:33N 50°36' W 002°21'0 0.0
2014-Apr-21 21:15N 50°36' W 002°21'2 0.9
2014-Apr-21 18:33N 50°34' W 002°21'1110.8
2014-Apr-21 17:33N 50°27' W 002°08'1514.5
2014-Apr-21 16:33N 50°22' W 001°46'1413.8
2014-Apr-21 15:33N 50°22' W 001°25'1312.6
2014-Apr-21 14:33N 50°22' W 001°05'1110.9
2014-Apr-21 13:33N 50°24' W 000°48'1010.2
2014-Apr-21 12:33N 50°26' W 000°32'1110.8
2014-Apr-21 11:33N 50°29' W 000°16'1211.8
2014-Apr-21 10:33N 50°32' E 000°02'1313.0
2014-Apr-21 09:34N 50°35' E 000°22'1413.8
2014-Apr-21 08:34N 50°40' E 000°42'1413.9
2014-Apr-21 07:33N 50°48' E 000°60'1313.2
2014-Apr-21 06:33N 50°58' E 001°15'1212.1
2014-Apr-21 05:33N 51°06' E 001°29'1010.5
2014-Apr-21 04:33N 51°12' E 001°42'1110.9
2014-Apr-21 03:33N 51°21' E 001°52'1212.4
2014-Apr-21 02:33N 51°31' E 002°04'1414.0
2014-Apr-21 01:33N 51°42' E 002°18'1514.9
2014-Apr-21 00:33N 51°54' E 002°34'1714.3
2014-Apr-20 23:21N 52°11' E 002°39'2813.8
2014-Apr-20 21:17N 52°39' E 002°40'912.6
2014-Apr-20 20:33N 52°48' E 002°39'1212.2
2014-Apr-20 19:33N 53°00' E 002°39'4210.5
2014-Apr-20 15:33N 53°42' E 002°27'1110.9
2014-Apr-20 14:33N 53°46' E 002°10'1111.2
2014-Apr-20 13:33N 53°52' E 001°54'2311.6
2014-Apr-20 11:33N 54°05' E 001°21'1812.0
2014-Apr-20 10:05N 54°13' E 000°54'712.4
2014-Apr-20 09:33N 54°16' E 000°44'1212.5
2014-Apr-20 08:33N 54°21' E 000°24'1312.8
2014-Apr-20 07:33N 54°26' E 000°04'1313.2
2014-Apr-20 06:33N 54°32' W 000°16'1413.5
2014-Apr-20 05:33N 54°38' W 000°37'1313.3
2014-Apr-20 04:34N 54°43' W 000°58'8 8.3
2014-Apr-20 03:33N 54°37' W 001°09'0 0.1
2014-Apr-20 02:31N 54°38' W 001°09'0 0.0
2014-Apr-20 01:31N 54°38' W 001°09'0 0.0
2014-Apr-20 00:31N 54°38' W 001°09'0 0.0
2014-Apr-19 23:31N 54°38' W 001°09'0 0.0
2014-Apr-19 22:31N 54°38' W 001°09'0 0.0
2014-Apr-19 21:31N 54°38' W 001°09'0 0.0
2014-Apr-19 20:28N 54°38' W 001°09'0 0.0
2014-Apr-19 19:31N 54°38' W 001°09'0 0.0
2014-Apr-19 18:31N 54°38' W 001°09'0 0.0
2014-Apr-19 17:31N 54°38' W 001°09'0 0.0
2014-Apr-19 16:31N 54°38' W 001°09'0 0.0
2014-Apr-19 15:31N 54°38' W 001°09'0 0.0
2014-Apr-19 14:31N 54°38' W 001°09'0 0.0
2014-Apr-19 13:31N 54°38' W 001°09'0 0.0
2014-Apr-19 12:31N 54°38' W 001°09'0 0.0
2014-Apr-19 11:31N 54°38' W 001°09'0 0.0
2014-Apr-19 10:31N 54°38' W 001°09'0 0.0
2014-Apr-19 09:31N 54°38' W 001°09'0 0.0
2014-Apr-19 08:31N 54°38' W 001°09'0 0.0
2014-Apr-19 07:31N 54°38' W 001°09'0 0.0
2014-Apr-19 06:31N 54°38' W 001°09'0 0.0
2014-Apr-19 05:31N 54°38' W 001°09'0 0.0
2014-Apr-19 04:31N 54°38' W 001°09'0 0.0
2014-Apr-19 03:31N 54°38' W 001°09'0 0.0
2014-Apr-18 23:07N 54°38' W 001°09'0 0.0
2014-Apr-18 22:31N 54°38' W 001°09'0 0.0
2014-Apr-18 21:31N 54°38' W 001°09'0 0.0
2014-Apr-18 20:31N 54°38' W 001°09'0 0.0
2014-Apr-18 19:31N 54°38' W 001°09'0 0.0
2014-Apr-18 18:31N 54°38' W 001°09'0 0.0
2014-Apr-18 17:31N 54°38' W 001°09'0 0.0
2014-Apr-18 16:31N 54°38' W 001°09'0 0.0
2014-Apr-18 15:31N 54°38' W 001°09'0 0.0
2014-Apr-18 14:31N 54°38' W 001°09'0 0.0
2014-Apr-18 13:31N 54°38' W 001°09'0 0.0
2014-Apr-18 12:31N 54°38' W 001°09'0 0.0
2014-Apr-18 11:31N 54°38' W 001°09'0 0.0
2014-Apr-18 10:28N 54°38' W 001°09'0 0.0
2014-Apr-18 09:31N 54°38' W 001°09'0 0.0
2014-Apr-18 08:28N 54°38' W 001°09'0 0.0
2014-Apr-18 07:31N 54°38' W 001°09'0 0.0
2014-Apr-18 06:31N 54°38' W 001°09'0 0.0
2014-Apr-18 05:28N 54°38' W 001°09'0 0.0
2014-Apr-18 04:31N 54°38' W 001°09'0 0.0
2014-Apr-18 03:31N 54°38' W 001°09'0 0.0
2014-Apr-18 02:28N 54°38' W 001°09'0 0.0
2014-Apr-18 01:31N 54°38' W 001°09'0 0.0
2014-Apr-18 00:31N 54°38' W 001°09'0 0.0
2014-Apr-17 23:28N 54°38' W 001°09'0 0.0
2014-Apr-17 22:31N 54°38' W 001°09'0 0.0
2014-Apr-17 21:28N 54°38' W 001°09'0 0.0
2014-Apr-17 20:31N 54°38' W 001°09'0 0.0
2014-Apr-17 19:31N 54°38' W 001°09'0 0.0
2014-Apr-17 18:31N 54°38' W 001°09'0 0.0
2014-Apr-17 17:31N 54°38' W 001°09'0 0.0
2014-Apr-17 16:31N 54°38' W 001°09'0 0.0
2014-Apr-17 15:31N 54°38' W 001°09'0 0.0
2014-Apr-17 14:31N 54°38' W 001°09'0 0.0
2014-Apr-17 13:31N 54°38' W 001°09'0 0.0
2014-Apr-17 12:31N 54°38' W 001°09'0 0.0
2014-Apr-17 11:31N 54°38' W 001°09'0 0.0
2014-Apr-17 10:31N 54°38' W 001°09'0 0.0
2014-Apr-17 09:31N 54°38' W 001°09'0 0.0
2014-Apr-17 08:31N 54°38' W 001°09'0 0.0
2014-Apr-17 07:31N 54°38' W 001°09'0 0.0
2014-Apr-17 06:31N 54°38' W 001°09'0 0.0
2014-Apr-17 05:31N 54°38' W 001°09'0 0.0
2014-Apr-17 04:31N 54°38' W 001°09'0 0.0
2014-Apr-17 03:31N 54°38' W 001°09'0 0.0
2014-Apr-17 02:31N 54°38' W 001°09'0 0.0
2014-Apr-17 01:31N 54°38' W 001°09'0 0.0
2014-Apr-17 00:31N 54°38' W 001°09'0 0.0
2014-Apr-16 23:31N 54°38' W 001°09'0 0.0
2014-Apr-16 22:31N 54°38' W 001°09'0 0.0
2014-Apr-16 21:31N 54°38' W 001°09'0 0.0
2014-Apr-16 20:31N 54°38' W 001°09'0 0.0
2014-Apr-16 19:31N 54°38' W 001°09'0 0.0
2014-Apr-16 18:28N 54°38' W 001°09'0 0.0
2014-Apr-16 17:31N 54°38' W 001°09'0 0.0
2014-Apr-16 16:31N 54°38' W 001°09'0 0.0
2014-Apr-16 15:31N 54°38' W 001°09'0 0.0
2014-Apr-16 14:31N 54°38' W 001°09'0 0.0
2014-Apr-16 13:25N 54°38' W 001°09'0 0.0
2014-Apr-16 12:31N 54°38' W 001°09'0 0.0
2014-Apr-16 11:31N 54°38' W 001°09'0 0.0
2014-Apr-16 10:31N 54°38' W 001°09'0 0.0
2014-Apr-16 09:31N 54°38' W 001°09'0 0.0
2014-Apr-16 08:31N 54°38' W 001°09'0 0.0
2014-Apr-16 07:25N 54°38' W 001°09'0 0.0
2014-Apr-16 06:31N 54°38' W 001°09'0 0.0
2014-Apr-16 05:31N 54°38' W 001°09'0 0.0
2014-Apr-16 04:31N 54°38' W 001°09'0 0.0
2014-Apr-16 03:31N 54°38' W 001°09'0 0.0
2014-Apr-16 02:31N 54°38' W 001°09'0 0.0
2014-Apr-16 01:28N 54°38' W 001°09'0 0.0
2014-Apr-16 00:31N 54°38' W 001°09'0 0.0
2014-Apr-15 23:31N 54°38' W 001°09'0 0.0
2014-Apr-15 22:31N 54°38' W 001°09'0 0.0
2014-Apr-15 21:31N 54°38' W 001°09'0 0.0
2014-Apr-15 20:31N 54°38' W 001°09'0 0.0
2014-Apr-15 19:31N 54°38' W 001°09'0 0.0
2014-Apr-15 18:31N 54°38' W 001°09'0 0.0
2014-Apr-15 17:31N 54°38' W 001°09'0 0.0
2014-Apr-15 16:31N 54°38' W 001°09'0 0.0
2014-Apr-15 15:31N 54°38' W 001°09'0 0.0
2014-Apr-15 14:31N 54°38' W 001°09'0 0.0
2014-Apr-15 11:32N 54°38' W 001°09'0 0.0
2014-Apr-15 10:32N 54°38' W 001°09'0 0.0
2014-Apr-15 09:32N 54°38' W 001°09'0 0.0
2014-Apr-15 08:32N 54°38' W 001°09'0 0.0
2014-Apr-15 07:32N 54°38' W 001°09'0 0.0
2014-Apr-15 06:32N 54°38' W 001°09'0 0.0
2014-Apr-15 05:32N 54°38' W 001°09'0 0.0
2014-Apr-15 03:32N 54°38' W 001°09'0 0.0
2014-Apr-15 02:32N 54°38' W 001°09'0 0.0
2014-Apr-15 01:32N 54°38' W 001°09'0 0.0
2014-Apr-15 00:32N 54°38' W 001°09'0 0.0
2014-Apr-14 23:29N 54°38' W 001°09'0 0.0
2014-Apr-14 22:32N 54°38' W 001°09'0 0.0
2014-Apr-14 21:32N 54°38' W 001°09'0 0.0
2014-Apr-14 20:32N 54°38' W 001°09'0 0.0
2014-Apr-14 19:32N 54°38' W 001°09'0 0.0
2014-Apr-14 18:32N 54°38' W 001°09'0 0.0
2014-Apr-14 17:32N 54°38' W 001°09'0 0.0
2014-Apr-14 16:32N 54°38' W 001°09'0 0.0
2014-Apr-14 15:32N 54°38' W 001°09'0 0.0
2014-Apr-14 14:32N 54°38' W 001°09'0 0.0
2014-Apr-14 13:33N 54°38' W 001°09'6 3.2
2014-Apr-14 11:32N 54°41' W 001°00'0 0.0
2014-Apr-14 10:32N 54°41' W 001°00'0 0.2
2014-Apr-14 09:32N 54°42' W 001°01'0 0.0
2014-Apr-14 08:32N 54°42' W 001°01'0 0.1
2014-Apr-14 07:32N 54°41' W 001°01'0 0.2
2014-Apr-14 06:32N 54°41' W 001°00'0 0.0
2014-Apr-14 05:32N 54°41' W 001°00'  

Dump ship's entire track history

sailing weather and tide predictions

Conches — V7VA3 — position and weather